createdAt,value
2018-09-09T00:01:33.900Z,4.13
2018-09-09T00:04:03.399Z,4.17
2018-09-09T00:06:32.364Z,3.40
2018-09-09T00:09:01.530Z,3.70
2018-09-09T00:11:30.913Z,3.63
2018-09-09T00:13:59.964Z,3.00
2018-09-09T00:16:29.045Z,3.63
2018-09-09T00:18:58.566Z,3.50
2018-09-09T00:21:27.536Z,4.00
2018-09-09T00:23:56.535Z,3.70
2018-09-09T00:26:26.314Z,3.73
2018-09-09T00:28:55.297Z,3.90
2018-09-09T00:31:24.285Z,4.03
2018-09-09T00:33:53.728Z,3.73
2018-09-09T00:36:22.723Z,3.90
2018-09-09T00:38:51.853Z,4.30
2018-09-09T00:41:21.009Z,4.60
2018-09-09T00:43:50.090Z,4.00
2018-09-09T00:46:23.165Z,3.70
2018-09-09T00:48:57.453Z,4.33
2018-09-09T00:51:38.885Z,3.97
2018-09-09T00:54:07.905Z,4.50
2018-09-09T00:56:36.948Z,4.30
2018-09-09T00:59:06.068Z,5.00
2018-09-09T01:01:35.096Z,4.47
2018-09-09T01:04:04.085Z,5.30
2018-09-09T01:06:33.547Z,4.80
2018-09-09T01:09:02.595Z,4.87
2018-09-09T01:11:31.625Z,4.90
2018-09-09T01:14:00.770Z,4.60
2018-09-09T01:16:29.767Z,4.20
2018-09-09T01:18:58.804Z,4.33
2018-09-09T01:21:28.188Z,4.00
2018-09-09T01:23:57.175Z,4.17
2018-09-09T01:26:26.213Z,4.67
2018-09-09T01:28:55.471Z,5.27
2018-09-09T01:31:24.511Z,5.20
2018-09-09T01:33:56.615Z,5.43
2018-09-09T01:36:25.752Z,5.57
2018-09-09T01:38:54.776Z,5.03
2018-09-09T01:41:23.836Z,4.93
2018-09-09T01:43:52.929Z,5.00
2018-09-09T01:46:22.206Z,4.23
2018-09-09T01:48:51.204Z,4.40
2018-09-09T01:51:20.383Z,4.70
2018-09-09T01:53:49.731Z,4.33
2018-09-09T01:56:18.733Z,4.67
2018-09-09T01:58:47.797Z,5.00
2018-09-09T02:01:16.861Z,4.60
2018-09-09T02:03:45.958Z,4.70
2018-09-09T02:06:14.970Z,4.67
2018-09-09T02:08:44.664Z,4.57
2018-09-09T02:11:14.575Z,4.07
2018-09-09T02:13:43.566Z,4.77
2018-09-09T02:16:12.611Z,4.90
2018-09-09T02:18:41.692Z,4.77
2018-09-09T02:21:10.689Z,4.30
2018-09-09T02:23:40.307Z,4.70
2018-09-09T02:26:09.305Z,4.63
2018-09-09T02:28:38.350Z,4.40
2018-09-09T02:31:07.821Z,4.57
2018-09-09T02:33:36.828Z,4.33
2018-09-09T02:36:05.986Z,4.33
2018-09-09T02:38:35.028Z,4.87
2018-09-09T02:41:04.052Z,4.40
2018-09-09T02:43:33.147Z,4.60
2018-09-09T02:46:02.099Z,4.60
2018-09-09T02:48:31.127Z,4.90
2018-09-09T02:51:00.485Z,4.60
2018-09-09T02:53:29.481Z,4.63
2018-09-09T02:55:58.537Z,4.20
2018-09-09T02:58:27.944Z,4.83
2018-09-09T03:00:56.957Z,4.00
2018-09-09T03:03:25.981Z,3.63
2018-09-09T03:05:55.043Z,3.90
2018-09-09T03:08:24.020Z,3.97
2018-09-09T03:10:58.734Z,3.90
2018-09-09T03:13:27.715Z,3.27
2018-09-09T03:15:56.717Z,3.67
2018-09-09T03:18:25.954Z,3.47
2018-09-09T03:20:55.049Z,3.50
2018-09-09T03:23:24.164Z,3.53
2018-09-09T03:25:53.304Z,2.87
2018-09-09T03:28:22.284Z,3.10
2018-09-09T03:30:51.326Z,3.23
2018-09-09T03:33:20.524Z,2.73
2018-09-09T03:35:49.577Z,2.90
2018-09-09T03:38:18.735Z,3.07
2018-09-09T03:40:47.829Z,3.07
2018-09-09T03:43:16.929Z,3.30
2018-09-09T03:45:45.949Z,2.60
2018-09-09T03:48:15.019Z,2.97
2018-09-09T03:50:44.361Z,2.90
2018-09-09T03:53:13.412Z,2.60
2018-09-09T03:55:42.409Z,2.70
2018-09-09T03:58:11.469Z,2.70
2018-09-09T04:00:40.470Z,2.27
2018-09-09T04:03:09.438Z,2.40
2018-09-09T04:05:38.472Z,2.93
2018-09-09T04:08:07.880Z,2.70
2018-09-09T04:10:36.892Z,2.60
2018-09-09T04:13:06.031Z,2.87
2018-09-09T04:15:35.554Z,2.10
2018-09-09T04:18:04.675Z,2.30
2018-09-09T04:20:34.038Z,2.10
2018-09-09T04:23:03.091Z,2.52
2018-09-09T04:25:32.105Z,2.60
2018-09-09T04:28:01.099Z,2.17
2018-09-09T04:30:30.148Z,2.40
2018-09-09T04:32:59.211Z,2.50
2018-09-09T04:35:28.698Z,2.60
2018-09-09T04:37:58.065Z,2.47
2018-09-09T04:40:27.152Z,2.47
2018-09-09T04:42:56.116Z,2.60
2018-09-09T04:45:25.184Z,2.80
2018-09-09T04:47:55.054Z,2.30
2018-09-09T04:50:24.113Z,2.37
2018-09-09T04:52:53.149Z,2.80
2018-09-09T04:55:22.172Z,2.60
2018-09-09T04:57:51.519Z,3.20
2018-09-09T05:00:20.548Z,2.93
2018-09-09T05:02:49.686Z,3.20
2018-09-09T05:05:18.815Z,2.87
2018-09-09T05:07:47.853Z,3.03
2018-09-09T05:10:17.202Z,3.27
2018-09-09T05:12:46.687Z,2.93
2018-09-09T05:15:15.702Z,2.60
2018-09-09T05:17:44.713Z,2.67
2018-09-09T05:20:14.217Z,2.70
2018-09-09T05:22:43.692Z,2.37
2018-09-09T05:25:12.708Z,2.53
2018-09-09T05:27:41.956Z,2.33
2018-09-09T05:30:10.972Z,2.20
2018-09-09T05:32:40.125Z,2.40
2018-09-09T05:35:09.173Z,2.07
2018-09-09T05:37:38.793Z,2.20
2018-09-09T05:40:07.922Z,2.33
2018-09-09T05:42:36.940Z,2.10
2018-09-09T05:45:06.531Z,2.17
2018-09-09T05:47:35.533Z,2.07
2018-09-09T05:50:04.593Z,1.93
2018-09-09T05:52:34.379Z,2.20
2018-09-09T05:55:03.456Z,2.27
2018-09-09T05:57:32.482Z,2.00
2018-09-09T06:00:01.606Z,2.30
2018-09-09T06:02:30.580Z,2.00
2018-09-09T06:04:59.585Z,2.20
2018-09-09T06:07:29.015Z,2.17
2018-09-09T06:09:58.038Z,2.27
2018-09-09T06:12:27.048Z,2.50
2018-09-09T06:14:56.107Z,2.80
2018-09-09T06:17:25.090Z,2.40
2018-09-09T06:19:54.847Z,2.37
2018-09-09T06:22:24.202Z,2.30
2018-09-09T06:24:53.332Z,2.07
2018-09-09T06:27:22.361Z,2.30
2018-09-09T06:29:51.470Z,2.03
2018-09-09T06:32:20.624Z,1.97
2018-09-09T06:34:49.765Z,2.23
2018-09-09T06:37:25.522Z,2.30
2018-09-09T06:39:54.535Z,2.20
2018-09-09T06:42:23.524Z,2.40
2018-09-09T06:44:52.810Z,2.13
2018-09-09T06:47:21.840Z,1.97
2018-09-09T06:49:50.953Z,1.93
2018-09-09T06:52:20.501Z,2.10
2018-09-09T06:54:49.488Z,2.10
2018-09-09T06:57:18.533Z,2.10
2018-09-09T06:59:49.317Z,2.50
2018-09-09T07:02:18.348Z,2.30
2018-09-09T07:04:47.348Z,2.13
2018-09-09T07:07:16.372Z,1.83
2018-09-09T07:09:45.457Z,2.07
2018-09-09T07:12:14.501Z,1.97
2018-09-09T07:14:43.828Z,2.07
2018-09-09T07:17:12.886Z,1.60
2018-09-09T07:19:43.489Z,2.00
2018-09-09T07:22:12.564Z,1.80
2018-09-09T07:24:41.604Z,1.80
2018-09-09T07:27:10.645Z,1.83
2018-09-09T07:29:46.318Z,1.60
2018-09-09T07:32:15.393Z,1.90
2018-09-09T07:34:44.458Z,2.00
2018-09-09T07:37:13.469Z,1.60
2018-09-09T07:39:49.417Z,1.67
2018-09-09T07:42:19.585Z,1.70
2018-09-09T07:44:49.808Z,1.60
2018-09-09T07:47:19.006Z,1.95
2018-09-09T07:49:48.013Z,1.82
2018-09-09T07:52:17.024Z,2.08
2018-09-09T07:54:46.060Z,1.37
2018-09-09T07:57:15.166Z,1.45
2018-09-09T07:59:44.147Z,1.77
2018-09-09T08:02:13.234Z,1.70
2018-09-09T08:04:43.074Z,1.40
2018-09-09T08:07:12.099Z,1.60
2018-09-09T08:09:41.143Z,1.50
2018-09-09T08:12:10.244Z,1.72
2018-09-09T08:14:39.237Z,1.50
2018-09-09T08:17:08.477Z,1.50
2018-09-09T08:19:37.502Z,1.98
2018-09-09T08:22:06.632Z,1.25
2018-09-09T08:24:36.354Z,1.60
2018-09-09T08:27:05.657Z,1.60
2018-09-09T08:29:34.677Z,1.30
2018-09-09T08:32:03.788Z,1.20
2018-09-09T08:34:32.895Z,1.47
2018-09-09T08:37:01.924Z,1.30
2018-09-09T08:39:30.929Z,1.37
2018-09-09T08:41:59.954Z,1.20
2018-09-09T08:44:28.990Z,1.60
2018-09-09T08:46:58.015Z,1.40
2018-09-09T08:49:27.805Z,1.30
2018-09-09T08:51:56.907Z,1.32
2018-09-09T08:54:27.853Z,1.27
2018-09-09T08:56:56.921Z,1.10
2018-09-09T08:59:26.321Z,1.25
2018-09-09T09:01:56.238Z,1.30
2018-09-09T09:04:25.320Z,1.35
2018-09-09T09:06:54.413Z,1.40
2018-09-09T09:09:23.463Z,1.47
2018-09-09T09:11:52.524Z,1.27
2018-09-09T09:14:21.649Z,1.42
2018-09-09T09:16:50.772Z,1.37
2018-09-09T09:19:19.905Z,1.00
2018-09-09T09:21:48.974Z,1.40
2018-09-09T09:24:18.326Z,1.45
2018-09-09T09:26:47.357Z,1.10
2018-09-09T09:29:16.408Z,1.32
2018-09-09T09:31:45.467Z,1.32
2018-09-09T09:34:14.484Z,1.25
2018-09-09T09:36:43.562Z,1.40
2018-09-09T09:39:12.683Z,1.20
2018-09-09T09:41:41.665Z,1.55
2018-09-09T09:44:10.736Z,1.35
2018-09-09T09:46:39.784Z,1.77
2018-09-09T09:49:08.924Z,1.10
2018-09-09T09:51:38.001Z,1.20
2018-09-09T09:54:07.132Z,1.37
2018-09-09T09:56:36.229Z,1.12
2018-09-09T09:59:05.371Z,1.37
2018-09-09T10:01:34.431Z,1.00
2018-09-09T10:04:03.458Z,1.20
2018-09-09T10:06:32.889Z,1.35
2018-09-09T10:09:01.997Z,1.20
2018-09-09T10:11:31.029Z,1.30
2018-09-09T10:14:00.088Z,1.20
2018-09-09T10:16:29.090Z,1.20
2018-09-09T10:18:58.194Z,1.27
2018-09-09T10:21:27.274Z,1.00
2018-09-09T10:23:56.594Z,1.32
2018-09-09T10:26:25.543Z,0.90
2018-09-09T10:28:54.556Z,1.40
2018-09-09T10:31:23.632Z,1.10
2018-09-09T10:33:52.620Z,1.35
2018-09-09T10:36:21.698Z,1.10
2018-09-09T10:38:50.808Z,1.00
2018-09-09T10:41:19.890Z,1.15
2018-09-09T10:43:49.013Z,1.25
2018-09-09T10:46:18.202Z,1.07
2018-09-09T10:48:47.165Z,1.10
2018-09-09T10:51:16.470Z,1.15
2018-09-09T10:53:45.467Z,1.10
2018-09-09T10:56:14.508Z,0.88
2018-09-09T10:58:43.533Z,1.20
2018-09-09T11:01:12.684Z,1.35
2018-09-09T11:03:48.350Z,1.10
2018-09-09T11:06:17.407Z,1.10
2018-09-09T11:08:46.461Z,1.27
2018-09-09T11:11:15.531Z,0.93
2018-09-09T11:13:44.829Z,0.95
2018-09-09T11:16:13.873Z,1.20
2018-09-09T11:18:42.869Z,1.15
2018-09-09T11:21:12.147Z,1.10
2018-09-09T11:23:41.229Z,1.10
2018-09-09T11:26:10.247Z,1.20
2018-09-09T11:28:39.341Z,1.10
2018-09-09T11:31:08.460Z,1.30
2018-09-09T11:33:37.502Z,1.10
2018-09-09T11:36:06.577Z,1.00
2018-09-09T11:38:35.641Z,1.10
2018-09-09T11:41:04.624Z,1.02
2018-09-09T11:43:34.328Z,1.07
2018-09-09T11:46:04.061Z,1.07
2018-09-09T11:48:33.411Z,1.10
2018-09-09T11:51:02.382Z,1.17
2018-09-09T11:53:31.381Z,1.20
2018-09-09T11:56:00.531Z,1.15
2018-09-09T11:58:29.544Z,1.20
2018-09-09T12:00:58.592Z,0.82
2018-09-09T12:03:27.649Z,1.20
2018-09-09T12:05:56.704Z,1.17
2018-09-09T12:08:25.797Z,1.22
2018-09-09T12:10:54.917Z,0.90
2018-09-09T12:13:24.108Z,1.10
2018-09-09T12:15:53.210Z,1.10
2018-09-09T12:18:22.613Z,1.10
2018-09-09T12:20:51.639Z,1.00
2018-09-09T12:23:20.700Z,1.07
2018-09-09T12:25:49.746Z,1.30
2018-09-09T12:28:19.720Z,1.15
2018-09-09T12:30:49.185Z,1.15
2018-09-09T12:33:19.364Z,1.10
2018-09-09T12:35:48.421Z,1.17
2018-09-09T12:38:17.450Z,1.10
2018-09-09T12:40:46.717Z,1.52
2018-09-09T12:43:21.386Z,1.10
2018-09-09T12:45:55.756Z,1.07
2018-09-09T12:48:30.069Z,1.10
2018-09-09T12:51:00.354Z,1.45
2018-09-09T12:53:29.396Z,1.10
2018-09-09T12:55:59.046Z,1.50
2018-09-09T12:58:28.093Z,1.30
2018-09-09T13:00:57.125Z,1.35
2018-09-09T13:03:26.237Z,1.07
2018-09-09T13:05:55.280Z,1.10
2018-09-09T13:08:24.304Z,1.00
2018-09-09T13:10:53.376Z,0.90
2018-09-09T13:13:22.576Z,1.30
2018-09-09T13:15:51.605Z,1.32
2018-09-09T13:18:20.704Z,1.10
2018-09-09T13:20:49.727Z,1.50
2018-09-09T13:23:18.803Z,1.47
2018-09-09T13:25:47.802Z,1.35
2018-09-09T13:28:16.921Z,1.12
2018-09-09T13:30:45.936Z,1.42
2018-09-09T13:33:14.992Z,1.10
2018-09-09T13:35:43.973Z,1.17
2018-09-09T13:38:13.246Z,1.10
2018-09-09T13:40:42.287Z,1.10
2018-09-09T13:43:11.320Z,1.30
2018-09-09T13:45:40.406Z,1.20
2018-09-09T13:48:09.812Z,1.25
2018-09-09T13:50:38.812Z,1.20
2018-09-09T13:53:07.825Z,1.02
2018-09-09T13:55:37.134Z,1.00
2018-09-09T13:58:06.223Z,1.50
2018-09-09T14:00:35.227Z,1.02
2018-09-09T14:03:04.599Z,1.40
2018-09-09T14:05:33.609Z,1.37
2018-09-09T14:08:02.672Z,1.27
2018-09-09T14:10:31.713Z,1.20
2018-09-09T14:13:01.146Z,1.17
2018-09-09T14:15:30.169Z,1.47
2018-09-09T14:17:59.289Z,7.45
2018-09-09T14:20:28.349Z,1.30
2018-09-09T14:22:57.382Z,1.30
2018-09-09T14:25:28.126Z,1.47
2018-09-09T14:27:57.226Z,1.00
2018-09-09T14:30:26.217Z,1.17
2018-09-09T14:32:55.281Z,1.07
2018-09-09T14:35:24.261Z,1.00
2018-09-09T14:37:53.282Z,1.10
2018-09-09T14:40:22.355Z,1.00
2018-09-09T14:42:51.338Z,1.30
2018-09-09T14:45:20.469Z,0.90
2018-09-09T14:47:49.456Z,1.20
2018-09-09T14:50:18.808Z,1.10
2018-09-09T14:52:47.800Z,1.27
2018-09-09T14:55:16.815Z,1.40
2018-09-09T14:57:45.872Z,1.00
2018-09-09T15:00:15.331Z,1.00
2018-09-09T15:02:44.404Z,1.10
2018-09-09T15:05:13.496Z,1.50
2018-09-09T15:07:42.522Z,1.17
2018-09-09T15:10:11.568Z,1.05
2018-09-09T15:12:40.589Z,1.00
2018-09-09T15:15:09.631Z,0.90
2018-09-09T15:17:38.674Z,1.07
2018-09-09T15:20:07.797Z,0.98
2018-09-09T15:22:43.298Z,1.20
2018-09-09T15:25:12.301Z,1.02
2018-09-09T15:27:41.339Z,1.12
2018-09-09T15:30:10.318Z,1.02
2018-09-09T15:32:39.430Z,1.20
2018-09-09T15:35:08.539Z,1.00
2018-09-09T15:37:37.593Z,1.20
2018-09-09T15:40:06.729Z,1.20
2018-09-09T15:42:35.667Z,1.15
2018-09-09T15:45:04.708Z,1.00
2018-09-09T15:47:33.777Z,1.05
2018-09-09T15:50:03.068Z,1.10
2018-09-09T15:52:32.102Z,1.22
2018-09-09T15:55:01.112Z,1.10
2018-09-09T15:57:30.708Z,1.00
2018-09-09T15:59:59.766Z,1.20
2018-09-09T16:02:28.752Z,1.27
2018-09-09T16:04:57.744Z,1.00
2018-09-09T16:07:26.789Z,1.10
2018-09-09T16:09:55.861Z,1.35
2018-09-09T16:12:24.828Z,1.20
2018-09-09T16:14:53.819Z,1.20
2018-09-09T16:17:22.904Z,1.00
2018-09-09T16:19:52.164Z,1.20
2018-09-09T16:22:21.221Z,1.12
2018-09-09T16:24:50.249Z,1.00
2018-09-09T16:27:19.284Z,1.02
2018-09-09T16:29:48.317Z,1.35
2018-09-09T16:32:17.416Z,1.00
2018-09-09T16:34:46.453Z,1.00
2018-09-09T16:37:15.471Z,1.10
2018-09-09T16:39:44.617Z,1.20
2018-09-09T16:42:13.564Z,1.00
2018-09-09T16:44:42.627Z,1.10
2018-09-09T16:47:11.612Z,1.05
2018-09-09T16:49:40.681Z,1.20
2018-09-09T16:52:09.745Z,1.20
2018-09-09T16:54:38.760Z,1.30
2018-09-09T16:57:07.780Z,0.95
2018-09-09T16:59:36.772Z,1.20
2018-09-09T17:02:05.784Z,1.15
2018-09-09T17:04:34.761Z,1.20
2018-09-09T17:07:03.930Z,1.10
2018-09-09T17:09:32.958Z,2.92
2018-09-09T17:12:02.045Z,3.15
2018-09-09T17:14:31.070Z,1.90
2018-09-09T17:17:00.121Z,1.35
2018-09-09T17:19:29.172Z,1.50
2018-09-09T17:21:58.232Z,1.60
2018-09-09T17:24:27.224Z,2.05
2018-09-09T17:26:56.241Z,2.55
2018-09-09T17:29:25.265Z,2.22
2018-09-09T17:31:54.600Z,2.00
2018-09-09T17:34:23.618Z,1.57
2018-09-09T17:36:52.761Z,1.57
2018-09-09T17:39:21.813Z,1.95
2018-09-09T17:41:50.845Z,2.02
2018-09-09T17:44:19.879Z,1.42
2018-09-09T17:46:48.957Z,1.50
2018-09-09T17:49:17.989Z,1.42
2018-09-09T17:51:46.980Z,1.70
2018-09-09T17:54:16.015Z,1.30
2018-09-09T17:56:45.225Z,1.47
2018-09-09T17:59:14.231Z,1.40
2018-09-09T18:01:43.234Z,1.50
2018-09-09T18:04:12.250Z,1.50
2018-09-09T18:06:41.269Z,1.17
2018-09-09T18:09:10.825Z,1.50
2018-09-09T18:11:40.119Z,1.73
2018-09-09T18:14:09.137Z,2.43
2018-09-09T18:16:38.161Z,1.70
2018-09-09T18:19:07.152Z,1.50
2018-09-09T18:21:36.272Z,1.43
2018-09-09T18:24:05.283Z,1.50
2018-09-09T18:26:34.252Z,1.40
2018-09-09T18:29:03.298Z,1.30
2018-09-09T18:31:32.361Z,1.50
2018-09-09T18:34:01.369Z,1.77
2018-09-09T18:36:30.397Z,1.50
2018-09-09T18:39:00.540Z,1.33
2018-09-09T18:41:29.446Z,1.30
2018-09-09T18:43:58.456Z,1.60
2018-09-09T18:46:27.570Z,1.50
2018-09-09T18:48:56.764Z,1.30
2018-09-09T18:51:25.767Z,1.63
2018-09-09T18:53:54.800Z,1.50
2018-09-09T18:56:23.862Z,1.40
2018-09-09T18:58:52.913Z,1.60
2018-09-09T19:01:22.018Z,2.80
2018-09-09T19:03:51.102Z,3.43
2018-09-09T19:06:20.277Z,2.83
2018-09-09T19:08:49.321Z,2.30
2018-09-09T19:11:18.309Z,1.70
2018-09-09T19:13:47.666Z,1.83
2018-09-09T19:16:16.648Z,1.50
2018-09-09T19:18:45.676Z,1.70
2018-09-09T19:21:14.748Z,1.70
2018-09-09T19:23:43.800Z,1.60
2018-09-09T19:26:12.832Z,1.70
2018-09-09T19:28:41.847Z,1.50
2018-09-09T19:31:10.880Z,1.80
2018-09-09T19:33:39.953Z,1.80
2018-09-09T19:36:08.987Z,1.97
2018-09-09T19:38:38.032Z,1.77
2018-09-09T19:41:07.057Z,1.67
2018-09-09T19:43:36.880Z,1.97
2018-09-09T19:46:05.897Z,1.70
2018-09-09T19:48:34.985Z,1.80
2018-09-09T19:51:03.986Z,1.80
2018-09-09T19:53:33.014Z,1.80
2018-09-09T19:56:02.111Z,1.93
2018-09-09T19:58:31.148Z,2.50
2018-09-09T20:01:00.500Z,1.90
2018-09-09T20:03:29.880Z,2.03
2018-09-09T20:05:59.017Z,1.80
2018-09-09T20:08:28.166Z,2.10
2018-09-09T20:10:57.341Z,2.10
2018-09-09T20:13:26.318Z,2.03
2018-09-09T20:15:55.739Z,1.90
2018-09-09T20:18:24.669Z,2.00
2018-09-09T20:20:53.653Z,2.20
2018-09-09T20:23:23.029Z,1.83
2018-09-09T20:25:52.748Z,1.97
2018-09-09T20:28:21.697Z,2.00
2018-09-09T20:30:51.080Z,1.87
2018-09-09T20:33:20.416Z,2.10
2018-09-09T20:35:49.456Z,2.10
2018-09-09T20:38:18.476Z,2.10
2018-09-09T20:40:47.552Z,2.10
2018-09-09T20:43:16.552Z,2.03
2018-09-09T20:45:45.614Z,2.00
2018-09-09T20:48:14.620Z,1.80
2018-09-09T20:50:43.646Z,2.07
2018-09-09T20:53:12.934Z,1.63
2018-09-09T20:55:41.904Z,2.20
2018-09-09T20:58:10.896Z,1.90
2018-09-09T21:00:40.896Z,2.00
2018-09-09T21:03:09.905Z,2.30
2018-09-09T21:05:38.947Z,2.30
2018-09-09T21:08:07.996Z,2.20
2018-09-09T21:10:37.049Z,2.23
2018-09-09T21:13:06.529Z,2.10
2018-09-09T21:15:35.547Z,2.50
2018-09-09T21:18:04.536Z,2.77
2018-09-09T21:20:33.876Z,2.70
2018-09-09T21:23:03.140Z,2.43
2018-09-09T21:25:32.120Z,2.33
2018-09-09T21:28:01.189Z,2.53
2018-09-09T21:30:30.243Z,2.37
2018-09-09T21:32:59.248Z,2.40
2018-09-09T21:35:28.277Z,2.67
2018-09-09T21:37:57.305Z,2.67
2018-09-09T21:40:26.611Z,2.60
2018-09-09T21:42:55.602Z,2.53
2018-09-09T21:45:24.644Z,2.67
2018-09-09T21:47:53.688Z,2.80
2018-09-09T21:50:22.718Z,2.43
2018-09-09T21:52:51.723Z,2.50
2018-09-09T21:55:20.768Z,3.00
2018-09-09T21:57:49.859Z,2.30
2018-09-09T22:00:18.924Z,2.90
2018-09-09T22:02:47.930Z,2.57
2018-09-09T22:05:16.955Z,2.80
2018-09-09T22:07:46.002Z,2.47
2018-09-09T22:10:14.965Z,2.53
2018-09-09T22:12:43.976Z,2.30
2018-09-09T22:15:13.009Z,2.37
2018-09-09T22:17:42.075Z,2.50
2018-09-09T22:20:11.416Z,2.70
2018-09-09T22:22:40.416Z,2.00
2018-09-09T22:25:09.508Z,2.73
2018-09-09T22:27:38.521Z,2.27
2018-09-09T22:30:07.573Z,2.43
2018-09-09T22:32:36.630Z,2.37
2018-09-09T22:35:05.636Z,2.00
2018-09-09T22:37:34.650Z,2.17
2018-09-09T22:40:03.707Z,2.10
2018-09-09T22:42:32.660Z,2.00
2018-09-09T22:45:02.008Z,2.17
2018-09-09T22:47:30.994Z,2.00
2018-09-09T22:49:59.987Z,2.47
2018-09-09T22:52:29.037Z,2.03
2018-09-09T22:54:58.053Z,2.00
2018-09-09T22:57:27.065Z,1.77
2018-09-09T22:59:56.065Z,2.10
2018-09-09T23:02:25.090Z,1.90
2018-09-09T23:04:54.133Z,2.30
2018-09-09T23:07:23.150Z,1.97
2018-09-09T23:09:52.289Z,2.03
2018-09-09T23:12:21.337Z,1.87
2018-09-09T23:14:50.351Z,2.00
2018-09-09T23:17:19.401Z,1.80
2018-09-09T23:19:48.461Z,1.90
2018-09-09T23:22:17.496Z,1.50
2018-09-09T23:24:46.497Z,1.53
2018-09-09T23:27:15.536Z,1.87
2018-09-09T23:29:44.581Z,1.50
2018-09-09T23:32:13.554Z,1.60
2018-09-09T23:34:43.060Z,2.10
2018-09-09T23:37:12.107Z,1.80
2018-09-09T23:39:41.055Z,1.60
2018-09-09T23:42:10.082Z,1.93
2018-09-09T23:44:39.080Z,1.83
2018-09-09T23:47:08.500Z,1.50
2018-09-09T23:49:37.525Z,1.80
2018-09-09T23:52:06.557Z,1.70
2018-09-09T23:54:35.641Z,1.60
2018-09-09T23:57:04.647Z,1.90
2018-09-09T23:59:33.688Z,1.80
